Time;durP1;ratioP1;P1;durP2;ratioP2;P2;SDS_P1;SDS_P2;PMS_P1;PMS_P2;Temp;Humidity;BMP_temperature;BMP_pressure;BME280_temperature;BME280_humidity;BME280_pressure;Samples;Min_cycle;Max_cycle;Signal;HPM_P1;HPM_P2
2023/04/29 00:02:16;;;;;;;5.87;2.00;;;;;;;23.31;36.48;99549.63;4346101;33;34310;-66
2023/04/29 00:04:43;;;;;;;4.60;1.98;;;;;;;23.30;36.54;99553.44;4345950;32;34552;-66
2023/04/29 00:07:14;;;;;;;6.22;2.22;;;;;;;23.29;36.50;99557.22;4346191;33;33944;-67
2023/04/29 00:09:42;;;;;;;5.45;2.22;;;;;;;23.28;36.59;99547.41;4345856;33;34118;-66
2023/04/29 00:12:10;;;;;;;6.47;2.30;;;;;;;23.30;36.58;99552.59;4345738;33;34193;-66
2023/04/29 00:14:37;;;;;;;5.07;2.10;;;;;;;23.28;36.64;99552.03;4345934;33;34067;-67
2023/04/29 00:17:04;;;;;;;4.12;2.10;;;;;;;23.26;36.64;99546.78;4335227;33;33520;-66
2023/04/29 00:19:32;;;;;;;3.92;2.08;;;;;;;23.26;36.66;99543.22;4332716;33;34027;-67
2023/04/29 00:22:00;;;;;;;4.82;1.92;;;;;;;23.26;36.61;99543.22;4333238;33;34340;-65
2023/04/29 00:24:27;;;;;;;4.68;2.12;;;;;;;23.25;36.57;99538.88;4333024;33;33682;-66
2023/04/29 00:26:55;;;;;;;5.72;2.30;;;;;;;23.25;36.55;99545.13;4333042;33;33968;-65
2023/04/29 00:29:23;;;;;;;4.53;2.08;;;;;;;23.23;36.60;99539.09;4332842;33;33611;-66
2023/04/29 00:31:50;;;;;;;4.53;2.30;;;;;;;23.23;36.60;99541.81;4332867;33;34236;-66
2023/04/29 00:34:18;;;;;;;4.32;2.30;;;;;;;23.22;36.59;99536.59;4332765;33;33725;-66
2023/04/29 00:36:45;;;;;;;5.82;2.22;;;;;;;23.21;36.56;99538.50;4332839;33;33841;-66
2023/04/29 00:39:13;;;;;;;5.07;1.95;;;;;;;23.22;36.57;99544.75;4332850;33;34865;-64
2023/04/29 00:41:42;;;;;;;5.22;2.40;;;;;;;23.20;36.57;99546.88;4332807;33;35017;-66
2023/04/29 00:44:11;;;;;;;4.57;2.05;;;;;;;23.20;36.62;99547.72;4307435;33;33891;-66
2023/04/29 00:46:38;;;;;;;4.70;2.00;;;;;;;23.19;36.66;99551.50;4332869;33;33738;-65
2023/04/29 00:49:07;;;;;;;4.03;1.90;;;;;;;23.19;36.63;99551.50;4332692;33;34176;-66
2023/04/29 00:51:35;;;;;;;5.18;2.03;;;;;;;23.19;36.61;99545.25;4319514;33;34262;-67
2023/04/29 00:54:03;;;;;;;4.55;1.83;;;;;;;23.18;36.61;99544.41;4319593;33;33341;-66
2023/04/29 00:56:33;;;;;;;7.53;1.83;;;;;;;23.17;36.63;99548.16;4332512;33;34889;-67
2023/04/29 00:59:01;;;;;;;4.57;1.98;;;;;;;23.18;36.59;99549.84;4319334;33;34262;-62
2023/04/29 01:01:29;;;;;;;4.80;2.03;;;;;;;23.17;36.63;99548.16;4319268;33;34514;-62
2023/04/29 01:03:57;;;;;;;3.70;1.62;;;;;;;23.16;36.64;99546.50;4319463;33;33544;-62
2023/04/29 01:06:50;;;;;;;4.03;1.80;;;;;;;23.15;36.64;99544.88;4332720;33;33881;-61
2023/04/29 01:09:28;;;;;;;4.75;2.35;;;;;;;23.14;36.68;99538.59;4332520;33;33782;-65
2023/04/29 01:12:17;;;;;;;3.60;2.00;;;;;;;23.12;36.74;99539.88;4319668;33;34223;-64
2023/04/29 01:14:48;;;;;;;4.37;2.10;;;;;;;23.09;36.76;99546.63;4332956;33;34200;-67
2023/04/29 01:17:17;;;;;;;4.55;2.00;;;;;;;23.10;36.80;99547.44;4306957;33;34915;-66
2023/04/29 01:19:49;;;;;;;4.53;1.70;;;;;;;23.08;36.83;99539.53;4332599;33;34876;-65
2023/04/29 01:22:20;;;;;;;4.28;1.92;;;;;;;23.08;36.89;99533.22;4331685;33;34402;-66
2023/04/29 01:24:48;;;;;;;4.62;1.80;;;;;;;23.09;36.87;99532.19;4344718;33;33773;-68
2023/04/29 01:27:29;;;;;;;4.22;2.15;;;;;;;23.08;36.84;99542.25;4347557;33;33994;-67
2023/04/29 01:31:05;;;;;;;3.08;1.70;;;;;;;23.08;36.83;99544.97;4322647;33;34472;-66
2023/04/29 01:33:41;;;;;;;3.28;1.85;;;;;;;23.09;36.77;99538.47;4278293;33;34444;-66
2023/04/29 01:36:21;;;;;;;3.67;2.05;;;;;;;23.07;36.79;99534.28;4325821;33;33746;-66
2023/04/29 01:39:15;;;;;;;5.30;1.92;;;;;;;23.06;36.82;99528.03;4347439;33;34051;-66
2023/04/29 01:42:07;;;;;;;5.97;2.33;;;;;;;23.08;36.82;99514.19;4334311;33;33524;-66
2023/04/29 01:44:35;;;;;;;4.47;2.12;;;;;;;23.04;36.89;99516.56;4347511;33;34949;-66
2023/04/29 01:47:03;;;;;;;3.95;1.98;;;;;;;23.04;36.86;99522.00;4333772;33;33523;-66
2023/04/29 01:49:34;;;;;;;3.75;1.77;;;;;;;23.04;36.92;99518.44;4322166;33;34468;-67
2023/04/29 01:52:02;;;;;;;3.70;1.80;;;;;;;23.02;36.94;99518.66;4347010;33;33718;-66
2023/04/29 01:54:30;;;;;;;3.95;1.92;;;;;;;23.03;36.99;99516.75;4347461;33;34149;-63
2023/04/29 01:56:59;;;;;;;3.35;1.80;;;;;;;23.02;37.00;99524.09;4347035;33;33264;-66
2023/04/29 01:59:26;;;;;;;3.92;2.00;;;;;;;23.02;36.98;99523.28;4347160;33;34605;-64
2023/04/29 02:01:58;;;;;;;3.92;2.08;;;;;;;23.02;37.01;99524.09;4347242;33;34035;-66
2023/04/29 02:04:27;;;;;;;3.62;2.00;;;;;;;23.01;37.03;99519.72;4346927;33;34283;-65
2023/04/29 02:06:55;;;;;;;4.03;2.00;;;;;;;23.02;37.03;99524.09;4347208;33;33379;-67
2023/04/29 02:09:22;;;;;;;3.58;2.12;;;;;;;23.02;37.07;99528.72;4347207;33;34340;-61
2023/04/29 02:11:50;;;;;;;4.70;2.05;;;;;;;23.02;37.12;99534.16;4347222;33;34965;-67
2023/04/29 02:14:18;;;;;;;4.35;2.40;;;;;;;23.02;37.14;99523.28;4346944;33;34869;-62
2023/04/29 02:16:45;;;;;;;5.15;1.90;;;;;;;23.01;37.15;99527.06;4347085;33;32888;-66
2023/04/29 02:19:14;;;;;;;4.53;1.70;;;;;;;23.00;37.17;99533.56;4347150;33;34773;-62
2023/04/29 02:21:41;;;;;;;4.60;1.85;;;;;;;23.00;37.18;99522.69;4333056;33;34654;-65
2023/04/29 02:24:09;;;;;;;3.87;1.92;;;;;;;23.00;37.18;99526.22;4332453;33;33875;-61
2023/04/29 02:26:37;;;;;;;4.05;2.10;;;;;;;22.99;37.19;99518.28;4332229;33;34161;-63
2023/04/29 02:29:05;;;;;;;5.40;2.25;;;;;;;22.99;37.19;99515.56;4332087;33;34774;-61
2023/04/29 02:31:32;;;;;;;3.55;1.80;;;;;;;22.98;37.21;99519.34;4332348;33;34661;-63
2023/04/29 02:34:00;;;;;;;5.37;1.80;;;;;;;22.97;37.22;99507.63;4332417;33;33937;-62
2023/04/29 02:36:28;;;;;;;4.25;1.80;;;;;;;22.97;37.23;99513.06;4331937;33;33780;-65
2023/04/29 02:38:55;;;;;;;2.83;1.35;;;;;;;22.97;37.27;99507.63;4332340;33;33822;-64
2023/04/29 02:41:24;;;;;;;3.37;1.77;;;;;;;22.98;37.29;99503.03;4331280;33;34089;-63
2023/04/29 02:43:52;;;;;;;9.32;2.30;;;;;;;22.97;37.29;99499.47;4331853;33;35018;-60
2023/04/29 02:46:19;;;;;;;3.42;1.73;;;;;;;22.98;37.31;99501.12;4332101;33;33679;-66
2023/04/29 02:48:47;;;;;;;6.87;1.87;;;;;;;22.97;37.23;99499.47;4331993;33;34581;-66
2023/04/29 02:51:15;;;;;;;2.95;1.58;;;;;;;22.97;37.16;99488.59;4332179;33;33736;-64
2023/04/29 02:53:42;;;;;;;3.35;1.73;;;;;;;22.97;37.25;99485.88;4332021;33;34931;-61
2023/04/29 02:56:11;;;;;;;4.53;1.98;;;;;;;22.97;37.28;99493.19;4332316;33;33546;-63
2023/04/29 02:58:38;;;;;;;5.07;2.00;;;;;;;22.96;37.31;99492.38;4332141;33;34308;-62
2023/04/29 03:01:06;;;;;;;5.10;2.20;;;;;;;22.96;37.30;99500.53;4332160;33;33760;-62
2023/04/29 03:03:33;;;;;;;7.00;1.92;;;;;;;22.94;37.33;99499.94;4331903;33;34209;-66
2023/04/29 03:06:01;;;;;;;6.75;2.12;;;;;;;22.94;37.33;99505.37;4331940;33;33367;-61
2023/04/29 03:08:28;;;;;;;4.93;1.90;;;;;;;22.93;37.32;99503.72;4331866;33;33981;-65
2023/04/29 03:10:56;;;;;;;4.97;1.85;;;;;;;22.92;37.34;99504.78;4331899;33;34806;-61
2023/04/29 03:13:24;;;;;;;2.90;1.67;;;;;;;22.92;37.36;99504.78;4332008;33;34341;-66
2023/04/29 03:15:51;;;;;;;4.37;1.95;;;;;;;22.91;37.37;99498.50;4331862;33;33497;-61
2023/04/29 03:18:19;;;;;;;6.28;2.00;;;;;;;22.92;37.39;99508.31;4331983;33;34827;-62
2023/04/29 03:20:47;;;;;;;5.10;1.90;;;;;;;22.92;37.40;99507.50;4337427;33;33839;-62
2023/04/29 03:23:14;;;;;;;4.85;1.80;;;;;;;22.91;37.43;99514.84;4346512;33;34299;-62
2023/04/29 03:25:42;;;;;;;5.25;1.87;;;;;;;22.90;37.44;99510.47;4346627;33;34284;-63
2023/04/29 03:28:10;;;;;;;3.75;1.73;;;;;;;22.90;37.44;99509.62;4346449;33;34085;-61
2023/04/29 03:30:37;;;;;;;4.68;1.85;;;;;;;22.90;37.45;99509.62;4346597;33;34934;-65
2023/04/29 03:33:06;;;;;;;6.65;2.20;;;;;;;22.90;37.48;99506.91;4346606;33;34186;-61
2023/04/29 03:35:33;;;;;;;5.00;2.22;;;;;;;22.88;37.50;99506.25;4346595;33;33682;-66
2023/04/29 03:38:05;;;;;;;6.32;2.05;;;;;;;22.88;37.50;99507.09;4346360;33;33929;-61
2023/04/29 03:40:33;;;;;;;5.47;1.98;;;;;;;22.88;37.49;99512.53;4346395;33;34895;-63
2023/04/29 03:43:00;;;;;;;3.60;1.70;;;;;;;22.88;37.50;99515.25;4346260;33;34281;-63
2023/04/29 03:45:28;;;;;;;7.35;1.90;;;;;;;22.88;37.57;99519.88;4333274;33;33869;-61
2023/04/29 03:47:56;;;;;;;5.12;1.73;;;;;;;22.88;37.54;99522.59;4346387;33;34616;-63
2023/04/29 03:50:24;;;;;;;7.05;1.67;;;;;;;22.88;37.55;99528.03;4346391;33;33805;-60
2023/04/29 03:52:52;;;;;;;4.28;1.67;;;;;;;22.87;37.53;99526.38;4345242;33;34007;-60
2023/04/29 03:55:20;;;;;;;5.30;1.70;;;;;;;22.88;37.54;99536.19;4332995;33;33340;-63
2023/04/29 03:57:47;;;;;;;4.30;1.75;;;;;;;22.86;37.55;99538.31;4346303;33;33817;-61
2023/04/29 04:00:15;;;;;;;3.53;1.70;;;;;;;22.86;37.54;99538.31;4346406;33;33996;-62
2023/04/29 04:02:43;;;;;;;5.62;2.10;;;;;;;22.86;37.55;99541.88;4346014;33;35016;-61
2023/04/29 04:05:12;;;;;;;5.68;1.90;;;;;;;22.86;37.58;99541.03;4346159;33;33737;-61
2023/04/29 04:07:40;;;;;;;3.53;1.95;;;;;;;22.84;37.57;99538.53;4332975;33;33879;-60
2023/04/29 04:10:12;;;;;;;4.35;2.08;;;;;;;22.86;37.58;99541.03;4345753;33;33724;-62
2023/04/29 04:12:40;;;;;;;3.62;1.62;;;;;;;22.85;37.57;99539.38;4332305;33;35157;-63
2023/04/29 04:15:11;;;;;;;6.12;2.10;;;;;;;22.86;37.62;99541.03;4346103;33;34579;-64
2023/04/29 04:17:38;;;;;;;4.32;1.75;;;;;;;22.86;37.66;99538.31;4346158;33;33583;-64
2023/04/29 04:20:06;;;;;;;4.45;2.08;;;;;;;22.86;37.70;99538.31;4341921;33;34040;-61
2023/04/29 04:22:35;;;;;;;7.50;1.90;;;;;;;22.85;37.68;99540.22;4330862;33;34045;-67
2023/04/29 04:25:04;;;;;;;4.00;1.95;;;;;;;22.86;37.64;99541.03;4331258;33;33728;-67
2023/04/29 04:27:31;;;;;;;3.70;1.73;;;;;;;22.86;37.59;99544.59;4331216;33;34668;-67
2023/04/29 04:30:00;;;;;;;3.50;1.70;;;;;;;22.87;37.59;99539.97;4330817;33;34189;-64
2023/04/29 04:32:28;;;;;;;2.12;1.50;;;;;;;22.85;37.58;99539.38;4331126;33;33949;-66
2023/04/29 04:34:56;;;;;;;4.20;1.60;;;;;;;22.85;37.60;99539.38;4331241;33;34450;-66
2023/04/29 04:37:23;;;;;;;3.65;2.00;;;;;;;22.85;37.62;99542.09;4330588;33;34883;-63
2023/04/29 04:39:52;;;;;;;4.78;1.60;;;;;;;22.84;37.64;99548.59;4331039;33;34158;-65
2023/04/29 04:42:21;;;;;;;3.75;1.70;;;;;;;22.83;37.67;99544.22;4330825;33;34282;-61
2023/04/29 04:44:49;;;;;;;4.93;1.83;;;;;;;22.82;37.68;99540.66;4330882;33;33688;-67
2023/04/29 04:47:18;;;;;;;4.15;1.92;;;;;;;22.83;37.69;99542.31;4330784;33;34740;-66
2023/04/29 04:49:45;;;;;;;3.67;1.80;;;;;;;22.82;37.73;99546.09;4330869;33;33786;-66
2023/04/29 04:52:13;;;;;;;3.17;1.83;;;;;;;22.82;37.75;99540.66;4330789;33;33887;-64
2023/04/29 04:54:45;;;;;;;3.78;1.62;;;;;;;22.82;37.76;99539.84;4330913;33;33719;-62
2023/04/29 04:57:13;;;;;;;2.70;1.23;;;;;;;22.82;37.76;99535.22;4330578;33;34213;-60
2023/04/29 04:59:42;;;;;;;2.67;1.42;;;;;;;22.82;37.78;99529.78;4330715;33;33852;-66
2023/04/29 05:02:09;;;;;;;5.05;1.62;;;;;;;22.81;37.79;99532.75;4330406;33;34935;-63
2023/04/29 05:04:39;;;;;;;5.10;1.95;;;;;;;22.82;37.82;99526.22;4332122;33;34251;-61
2023/04/29 05:07:07;;;;;;;5.22;1.90;;;;;;;22.81;37.84;99527.31;4332822;33;34023;-66
2023/04/29 05:09:36;;;;;;;3.28;1.37;;;;;;;22.81;37.86;99528.13;4334926;33;32946;-62
2023/04/29 05:12:04;;;;;;;4.50;1.85;;;;;;;22.80;37.83;99517.44;4335247;33;34355;-66
2023/04/29 05:14:33;;;;;;;2.63;1.30;;;;;;;22.80;37.85;99517.44;4335520;33;33593;-62
2023/04/29 05:17:00;;;;;;;4.03;1.40;;;;;;;22.81;37.86;99521.84;4345974;33;33866;-65
2023/04/29 05:19:29;;;;;;;2.28;1.30;;;;;;;22.81;37.88;99532.75;4346731;33;33797;-66
2023/04/29 05:21:57;;;;;;;2.25;1.30;;;;;;;22.80;37.89;99531.06;4319578;33;34349;-65
2023/04/29 05:24:25;;;;;;;4.25;1.98;;;;;;;22.80;37.89;99534.63;4332730;33;34548;-66
2023/04/29 05:26:53;;;;;;;5.62;1.83;;;;;;;22.80;37.87;99541.94;4332729;33;33769;-66
2023/04/29 05:29:20;;;;;;;3.22;1.50;;;;;;;22.78;37.85;99533.19;4333140;33;34747;-67
2023/04/29 05:31:49;;;;;;;3.12;1.55;;;;;;;22.78;37.89;99539.44;4333139;33;33954;-66
2023/04/29 05:34:17;;;;;;;3.37;1.50;;;;;;;22.78;37.90;99539.44;4334696;33;220103;-67
2023/04/29 05:36:45;;;;;;;4.37;1.70;;;;;;;22.77;37.90;99545.97;4347535;33;34113;-65
2023/04/29 05:39:13;;;;;;;4.55;1.73;;;;;;;22.77;37.90;99537.78;4347245;33;34514;-65
2023/04/29 05:41:42;;;;;;;3.40;1.70;;;;;;;22.77;37.92;99543.25;4347312;33;34889;-60
2023/04/29 05:44:10;;;;;;;3.58;1.65;;;;;;;22.77;37.93;99545.13;4347405;33;35155;-62
2023/04/29 05:46:37;;;;;;;6.78;1.60;;;;;;;22.77;37.94;99545.97;4347206;33;33987;-66
2023/04/29 05:49:05;;;;;;;4.55;1.80;;;;;;;22.78;37.94;99553.06;4347265;33;34667;-64
2023/04/29 05:51:32;;;;;;;3.55;1.60;;;;;;;22.77;37.94;99545.13;4347119;33;34380;-65
2023/04/29 05:54:00;;;;;;;3.12;1.55;;;;;;;22.77;37.93;99543.25;4347469;33;34707;-66
2023/04/29 05:56:28;;;;;;;4.07;2.00;;;;;;;22.79;37.93;99545.72;4336748;33;34477;-60
2023/04/29 05:58:55;;;;;;;2.70;1.52;;;;;;;22.79;37.94;99562.03;4331410;33;34010;-66
2023/04/29 06:01:23;;;;;;;5.85;1.70;;;;;;;22.78;37.95;99566.66;4332220;33;34302;-66
2023/04/29 06:03:51;;;;;;;2.75;1.75;;;;;;;22.79;37.92;99568.31;4341832;33;34407;-63
2023/04/29 06:06:21;;;;;;;3.45;1.77;;;;;;;22.80;37.83;99571.84;4332124;33;34081;-65
2023/04/29 06:08:50;;;;;;;3.70;1.70;;;;;;;22.80;37.83;99567.28;4317282;33;34819;-64
2023/04/29 06:11:18;;;;;;;5.47;1.98;;;;;;;22.81;37.82;99555.31;4332232;33;33858;-64
2023/04/29 06:13:45;;;;;;;2.92;1.58;;;;;;;22.80;37.83;99559.13;4331982;33;33751;-64
2023/04/29 06:16:13;;;;;;;5.93;2.20;;;;;;;22.80;37.84;99548.22;4345788;33;34788;-64
2023/04/29 06:18:41;;;;;;;10.05;2.15;;;;;;;22.81;37.83;99551.78;4333264;33;34299;-64
2023/04/29 06:21:08;;;;;;;4.68;1.80;;;;;;;22.81;37.86;99558.03;4344344;33;33933;-64
2023/04/29 06:23:38;;;;;;;3.90;1.67;;;;;;;22.81;37.84;99549.06;4346651;33;34137;-63
2023/04/29 06:26:06;;;;;;;4.25;1.80;;;;;;;22.82;37.88;99551.53;4346939;33;34227;-65
2023/04/29 06:28:33;;;;;;;6.68;2.10;;;;;;;22.83;37.88;99546.94;4346904;33;34744;-65
2023/04/29 06:31:01;;;;;;;9.73;2.10;;;;;;;22.82;37.87;99548.00;4333130;33;33486;-66
2023/04/29 06:33:30;;;;;;;3.85;1.80;;;;;;;22.82;37.84;99545.28;4346854;33;33819;-65
2023/04/29 06:35:57;;;;;;;5.00;1.60;;;;;;;22.82;37.89;99550.72;4346538;33;33789;-66
2023/04/29 06:38:27;;;;;;;2.80;1.30;;;;;;;22.82;37.91;99551.53;4346333;33;34947;-66
2023/04/29 06:40:59;;;;;;;3.15;1.65;;;;;;;22.84;37.86;99556.75;4337661;33;34886;-65
2023/04/29 06:43:27;;;;;;;4.40;1.98;;;;;;;22.81;37.86;99560.78;4331936;33;33935;-67
2023/04/29 06:45:55;;;;;;;3.05;1.65;;;;;;;22.82;37.91;99548.00;4331888;33;33939;-66
2023/04/29 06:48:22;;;;;;;2.92;1.50;;;;;;;22.83;37.92;99549.66;4318519;33;34140;-66
2023/04/29 06:50:51;;;;;;;4.22;1.70;;;;;;;22.82;37.86;99553.44;4318355;33;34949;-66
2023/04/29 06:53:19;;;;;;;3.80;1.60;;;;;;;22.82;37.90;99554.25;4331492;33;33644;-66
2023/04/29 06:55:46;;;;;;;2.87;1.65;;;;;;;22.82;37.87;99556.97;4317828;33;35508;-61
2023/04/29 06:58:15;;;;;;;4.95;1.65;;;;;;;22.83;37.88;99557.81;4331899;33;34026;-62
2023/04/29 07:00:47;;;;;;;5.30;1.92;;;;;;;22.83;38.02;99553.19;4331465;33;34842;-65
2023/04/29 07:03:15;;;;;;;3.67;2.00;;;;;;;22.83;38.11;99565.97;4331690;33;33341;-66
2023/04/29 07:05:44;;;;;;;5.10;2.40;;;;;;;22.84;38.07;99563.00;4318072;33;33812;-66
2023/04/29 07:08:12;;;;;;;4.70;2.17;;;;;;;22.86;37.94;99560.09;4331615;33;34752;-64
2023/04/29 07:10:40;;;;;;;5.50;2.30;;;;;;;22.87;37.85;99561.75;4331675;33;33735;-63
2023/04/29 07:13:08;;;;;;;9.45;4.03;;;;;;;22.87;37.73;99562.56;4318160;33;33655;-65
2023/04/29 07:15:35;;;;;;;13.82;4.60;;;;;;;22.87;36.93;99567.19;4331379;33;34573;-60
2023/04/29 07:18:04;;;;;;;8.35;3.20;;;;;;;22.84;36.51;99562.19;4331329;33;34040;-60
2023/04/29 07:20:31;;;;;;;5.80;2.97;;;;;;;22.83;37.39;99569.53;4335263;33;34647;-58
2023/04/29 07:22:59;;;;;;;6.00;2.90;;;;;;;22.86;37.78;99562.81;4329290;33;33128;-62
2023/04/29 07:25:28;;;;;;;6.97;3.10;;;;;;;22.88;38.00;99564.22;4334574;33;33391;-57
2023/04/29 07:27:56;;;;;;;9.07;3.12;;;;;;;22.90;38.08;99555.88;4319579;33;34106;-56
2023/04/29 07:30:24;;;;;;;5.90;2.65;;;;;;;22.92;38.09;99559.19;4331545;33;34845;-58
2023/04/29 07:32:52;;;;;;;6.60;2.80;;;;;;;22.95;38.09;99566.91;4331357;33;33697;-57
2023/04/29 07:35:20;;;;;;;8.48;3.10;;;;;;;22.95;38.05;99560.63;4330974;33;34672;-64
2023/04/29 07:37:48;;;;;;;9.82;3.10;;;;;;;22.97;38.03;99566.66;4331263;33;33474;-60
2023/04/29 07:40:15;;;;;;;5.68;2.53;;;;;;;22.97;38.08;99562.06;4333662;33;34085;-64
2023/04/29 07:42:43;;;;;;;6.82;2.87;;;;;;;22.99;38.12;99561.81;4346112;33;34546;-64
2023/04/29 07:45:12;;;;;;;7.07;2.40;;;;;;;22.99;38.05;99551.78;4345463;33;33041;-62
2023/04/29 07:47:40;;;;;;;5.83;2.87;;;;;;;23.00;37.99;99550.72;4346134;33;33769;-62
2023/04/29 07:50:08;;;;;;;6.22;2.62;;;;;;;23.02;37.98;99550.47;4345609;33;34341;-65
2023/04/29 07:52:38;;;;;;;;;;;;;;;23.03;38.06;99550.25;4346414;33;33511;-62
2023/04/29 07:55:05;;;;;;;7.00;2.80;;;;;;;23.13;37.94;99561.44;4346147;33;33978;-60
2023/04/29 07:57:33;;;;;;;7.30;2.97;;;;;;;23.07;38.13;99559.63;4346325;33;34798;-64
2023/04/29 08:00:01;;;;;;;8.57;2.90;;;;;;;23.07;38.19;99562.34;4346002;33;34009;-64
2023/04/29 08:02:29;;;;;;;6.93;2.92;;;;;;;23.08;38.27;99568.59;4346073;33;33755;-64
2023/04/29 08:04:57;;;;;;;5.47;2.58;;;;;;;23.09;38.33;99571.12;4345277;33;34613;-63
2023/04/29 08:07:25;;;;;;;6.97;3.03;;;;;;;23.11;38.31;99579.88;4346225;33;35354;-64
2023/04/29 08:09:53;;;;;;;8.05;2.70;;;;;;;23.13;38.36;99580.47;4345861;33;34871;-63
2023/04/29 08:12:21;;;;;;;7.53;2.90;;;;;;;23.14;38.53;99579.41;4345934;33;33539;-63
2023/04/29 08:14:48;;;;;;;5.65;2.65;;;;;;;23.16;38.64;99579.19;4345898;33;34669;-60
2023/04/29 08:17:15;;;;;;;7.60;2.67;;;;;;;23.17;38.84;99575.38;4345719;33;34848;-63
2023/04/29 08:19:43;;;;;;;5.95;3.03;;;;;;;23.21;38.95;99573.03;4344177;33;33502;-62
2023/04/29 08:22:12;;;;;;;5.72;3.00;;;;;;;23.21;39.12;99565.69;4330807;33;34244;-61
2023/04/29 08:24:41;;;;;;;5.72;3.00;;;;;;;23.23;39.24;99571.75;4331025;33;33872;-62
2023/04/29 08:27:09;;;;;;;6.03;2.60;;;;;;;23.26;39.29;99554.13;4330931;33;35179;-63
2023/04/29 08:29:37;;;;;;;8.63;3.12;;;;;;;23.25;39.37;99572.34;4330930;33;34325;-60
2023/04/29 08:32:04;;;;;;;5.47;3.00;;;;;;;23.28;39.39;99562.91;4330708;33;34447;-62
2023/04/29 08:34:34;;;;;;;6.90;3.30;;;;;;;23.29;39.31;99557.22;4330898;33;33426;-64
2023/04/29 08:37:02;;;;;;;9.32;3.50;;;;;;;23.30;39.29;99547.16;4330842;33;34930;-59
2023/04/29 08:39:30;;;;;;;5.57;2.97;;;;;;;23.30;39.22;99547.16;4332095;33;34800;-64
2023/04/29 08:41:58;;;;;;;7.87;3.12;;;;;;;23.31;39.06;99548.81;4333036;33;33327;-61
2023/04/29 08:44:26;;;;;;;6.20;3.33;;;;;;;23.29;38.86;99545.50;4332889;33;33953;-63
2023/04/29 08:46:54;;;;;;;7.10;3.17;;;;;;;23.29;38.64;99550.94;4332711;33;34157;-60
2023/04/29 08:49:22;;;;;;;7.28;2.80;;;;;;;23.29;38.42;99565.38;4332701;33;34368;-63
2023/04/29 08:51:50;;;;;;;7.62;3.28;;;;;;;23.29;38.27;99580.91;4335407;33;33719;-64
2023/04/29 08:54:18;;;;;;;6.78;3.00;;;;;;;23.29;38.14;99575.44;4335079;33;34921;-64
2023/04/29 08:56:48;;;;;;;6.30;3.03;;;;;;;23.29;38.03;99570.00;4335549;33;34941;-58
2023/04/29 08:59:16;;;;;;;9.30;3.87;;;;;;;23.27;37.96;99563.94;4331725;33;35069;-60
2023/04/29 09:01:48;;;;;;;9.57;3.40;;;;;;;23.27;37.90;99566.66;4324534;33;34609;-61
2023/04/29 09:04:34;;;;;;;7.45;3.90;;;;;;;23.26;37.83;99559.56;4301072;33;34053;-57
2023/04/29 09:07:02;;;;;;;6.72;3.28;;;;;;;23.28;37.73;99561.00;4337870;33;34849;-62
2023/04/29 09:09:30;;;;;;;9.52;3.80;;;;;;;23.23;37.50;99560.88;4334057;33;34417;-63
2023/04/29 09:11:57;;;;;;;6.05;3.37;;;;;;;23.23;37.25;99569.03;4332697;33;33431;-56
2023/04/29 09:14:25;;;;;;;6.62;3.28;;;;;;;23.23;37.06;99573.66;4347267;33;33631;-60
2023/04/29 09:16:53;;;;;;;7.50;3.53;;;;;;;23.21;36.97;99567.59;4347226;33;33803;-58
2023/04/29 09:19:30;;;;;;;5.47;3.03;;;;;;;23.20;36.86;99568.66;4347301;33;34697;-61
2023/04/29 09:21:59;;;;;;;5.37;3.05;;;;;;;23.22;36.81;99561.09;4317758;33;33758;-59
2023/04/29 09:24:27;;;;;;;5.55;3.20;;;;;;;23.17;36.76;99559.91;4317884;33;34781;-63
2023/04/29 09:26:54;;;;;;;7.10;3.30;;;;;;;23.16;36.69;99560.94;4318025;33;34595;-63
2023/04/29 09:29:22;;;;;;;8.05;3.20;;;;;;;23.16;36.65;99568.28;4317854;33;34039;-61
2023/04/29 09:31:53;;;;;;;6.87;3.28;;;;;;;23.15;36.59;99566.63;4319834;33;34727;-63
2023/04/29 09:34:51;;;;;;;7.78;4.00;;;;;;;23.14;36.57;99562.25;4339563;33;33535;-64
2023/04/29 09:37:26;;;;;;;7.57;3.95;;;;;;;23.15;36.55;99564.75;4339895;33;34929;-60
2023/04/29 09:39:54;;;;;;;10.90;4.82;;;;;;;23.16;36.48;99571.84;4347035;33;34186;-60
2023/04/29 09:42:22;;;;;;;10.00;4.10;;;;;;;23.15;36.52;99563.91;4335299;33;34386;-63
2023/04/29 09:44:50;;;;;;;8.60;4.57;;;;;;;23.15;36.63;99585.69;4332078;33;34771;-64
2023/04/29 09:47:19;;;;;;;8.97;4.60;;;;;;;23.13;36.66;99575.03;4331225;33;34828;-58
2023/04/29 09:49:48;;;;;;;13.90;4.20;;;;;;;23.15;36.79;99569.34;4306624;33;33799;-57
2023/04/29 09:52:17;;;;;;;10.18;4.60;;;;;;;23.14;36.82;99582.13;4332047;33;33909;-56
2023/04/29 09:54:44;;;;;;;8.75;4.10;;;;;;;23.14;36.81;99584.88;4341722;33;34068;-59
2023/04/29 09:57:15;;;;;;;8.48;3.90;;;;;;;23.12;36.90;99551.59;4346805;33;33972;-59
2023/04/29 09:59:42;;;;;;;7.97;4.32;;;;;;;23.14;36.90;99554.91;4406681;27;34761;-60
2023/04/29 10:02:14;;;;;;;11.43;4.03;;;;;;;23.14;36.88;99551.37;4325609;33;33737;-65
2023/04/29 10:04:47;;;;;;;7.37;3.62;;;;;;;23.14;36.95;99576.69;4337998;33;32630;-62
2023/04/29 10:07:15;;;;;;;11.15;4.18;;;;;;;23.12;36.94;99570.62;4331099;33;33359;-64
2023/04/29 10:09:45;;;;;;;9.77;4.45;;;;;;;23.14;36.92;99567.69;4342621;33;34070;-59
2023/04/29 10:12:17;;;;;;;8.27;3.83;;;;;;;23.13;36.92;99568.78;4346856;33;33727;-61
2023/04/29 10:15:05;;;;;;;7.90;3.22;;;;;;;23.13;36.89;99569.59;4345781;33;34945;-58
2023/04/29 10:17:39;;;;;;;10.93;4.03;;;;;;;23.15;36.83;99572.91;4342494;33;34124;-62
2023/04/29 10:20:07;;;;;;;11.60;4.10;;;;;;;23.16;36.77;99571.84;4332385;33;34372;-64
2023/04/29 10:22:44;;;;;;;6.50;3.40;;;;;;;23.12;36.80;99562.47;4345326;33;34391;-65
2023/04/29 10:25:14;;;;;;;6.47;3.87;;;;;;;23.11;36.84;99568.97;4346203;33;33646;-65
2023/04/29 10:27:43;;;;;;;7.87;3.70;;;;;;;23.11;36.87;99568.97;4331875;33;33669;-65
2023/04/29 10:30:12;;;;;;;9.02;3.55;;;;;;;23.11;36.90;99568.16;4343652;33;34272;-64
2023/04/29 10:32:42;;;;;;;12.50;4.10;;;;;;;23.10;36.92;99567.31;4334698;33;34355;-63
2023/04/29 10:35:18;;;;;;;8.52;4.25;;;;;;;23.13;36.93;99558.72;4322376;33;33797;-60
2023/04/29 10:37:47;;;;;;;7.07;3.65;;;;;;;23.14;37.13;99551.37;4337857;33;34024;-61
2023/04/29 10:40:26;;;;;;;10.00;3.80;;;;;;;23.14;37.21;99549.47;4333498;33;34228;-58
2023/04/29 10:42:54;;;;;;;10.40;3.95;;;;;;;23.13;37.28;99536.94;4311535;33;33760;-56
2023/04/29 10:45:31;;;;;;;9.38;3.70;;;;;;;23.14;37.30;99537.75;4318138;33;34897;-62
2023/04/29 10:48:01;;;;;;;7.57;3.60;;;;;;;23.15;37.37;99533.97;4330920;33;35067;-63
2023/04/29 10:50:30;;;;;;;10.90;3.78;;;;;;;23.15;37.46;99525.81;4332276;33;33482;-60
2023/04/29 10:53:00;;;;;;;6.75;3.53;;;;;;;23.15;37.52;99526.63;4317462;33;33796;-59
2023/04/29 10:55:28;;;;;;;10.25;3.87;;;;;;;23.14;37.59;99524.16;4304483;33;32894;-57
2023/04/29 10:57:56;;;;;;;11.00;4.40;;;;;;;23.14;37.64;99516.81;4329155;33;34658;-59
2023/04/29 11:00:27;;;;;;;6.53;3.30;;;;;;;23.15;37.71;99512.19;4322322;33;34271;-63
2023/04/29 11:02:56;;;;;;;11.57;4.25;;;;;;;23.16;37.72;99509.25;4331191;33;33383;-60
2023/04/29 11:05:34;;;;;;;9.88;3.78;;;;;;;23.17;37.71;99507.34;4317450;33;34799;-62
2023/04/29 11:08:22;;;;;;;9.95;3.40;;;;;;;23.16;37.75;99502.97;4318107;33;33191;-63
2023/04/29 11:10:52;;;;;;;10.32;3.37;;;;;;;23.16;37.69;99500.25;4320001;33;35117;-55
2023/04/29 11:13:27;;;;;;;15.15;4.25;;;;;;;23.16;37.74;99500.25;4331329;33;34935;-60
2023/04/29 11:16:07;;;;;;;14.70;3.67;;;;;;;23.16;37.79;99498.34;4331226;33;33952;-63
2023/04/29 11:18:35;;;;;;;13.62;3.37;;;;;;;23.16;37.84;99500.25;4331513;33;34901;-63
2023/04/29 11:21:06;;;;;;;8.15;3.60;;;;;;;23.17;37.84;99488.28;4318389;33;34338;-63
2023/04/29 11:23:34;;;;;;;10.88;3.95;;;;;;;23.15;37.96;99491.25;4331418;33;33567;-63
2023/04/29 11:26:02;;;;;;;9.90;3.53;;;;;;;23.17;38.03;99494.59;4331332;33;33993;-63
2023/04/29 11:28:30;;;;;;;10.40;3.70;;;;;;;23.18;38.08;99492.69;4331596;33;33652;-61
2023/04/29 11:30:58;;;;;;;7.53;3.60;;;;;;;23.17;38.09;99489.16;4317813;33;34925;-62
2023/04/29 11:33:26;;;;;;;7.97;2.97;;;;;;;23.18;38.14;99487.25;4331350;33;34327;-62
2023/04/29 11:38:59;;;;;;;10.23;3.30;;;;;;;23.19;38.19;99485.34;4301451;33;20148;-60
2023/04/29 11:41:27;;;;;;;7.95;3.87;;;;;;;23.16;38.30;99483.91;4301915;33;35112;-64
2023/04/29 11:43:58;;;;;;;9.65;3.75;;;;;;;23.19;38.29;99491.63;4316592;33;34004;-63
2023/04/29 11:46:28;;;;;;;9.52;3.42;;;;;;;23.17;38.36;99489.16;4303226;33;33668;-63
2023/04/29 11:48:57;;;;;;;8.30;3.42;;;;;;;23.21;38.37;99496.84;4303639;33;34453;-63